createdAt,value
2018-12-09T00:00:36.768Z,96999.72
2018-12-09T00:03:05.264Z,96988.98
2018-12-09T00:05:33.729Z,96985.98
2018-12-09T00:08:02.173Z,96980.39
2018-12-09T00:10:30.694Z,96978.24
2018-12-09T00:12:59.630Z,96971.80
2018-12-09T00:15:28.780Z,96961.92
2018-12-09T00:17:57.288Z,96964.07
2018-12-09T00:20:25.738Z,96952.45
2018-12-09T00:26:21.877Z,96952.47
2018-12-09T00:28:51.116Z,96954.18
2018-12-09T00:31:19.536Z,96943.88
2018-12-09T00:33:48.003Z,96933.14
2018-12-09T00:36:16.519Z,96937.43
2018-12-09T00:38:44.972Z,96939.98
2018-12-09T00:41:13.397Z,96929.25
2018-12-09T00:43:42.035Z,96918.95
2018-12-09T00:46:10.458Z,96910.80
2018-12-09T00:48:38.953Z,96909.50
2018-12-09T00:51:07.462Z,96907.34
2018-12-09T00:53:35.886Z,96905.64
2018-12-09T00:56:04.286Z,96907.78
2018-12-09T00:58:32.764Z,96910.34
2018-12-09T01:01:01.213Z,96905.18
2018-12-09T01:03:29.649Z,96897.90
2018-12-09T01:05:58.520Z,96896.61
2018-12-09T01:08:27.084Z,96897.02
2018-12-09T01:10:55.507Z,96897.45
2018-12-09T01:13:23.978Z,96895.74
2018-12-09T01:15:52.404Z,96901.74
2018-12-09T01:18:20.839Z,96881.14
2018-12-09T01:20:49.308Z,96871.30
2018-12-09T01:23:17.760Z,96876.85
2018-12-09T01:25:46.230Z,96870.00
2018-12-09T01:28:14.774Z,96876.85
2018-12-09T01:30:43.341Z,96875.14
2018-12-09T01:33:11.855Z,96869.57
2018-12-09T01:35:40.344Z,96857.53
2018-12-09T01:38:08.854Z,96856.68
2018-12-09T01:43:30.076Z,96846.81
2018-12-09T01:45:59.088Z,96832.66
2018-12-09T01:48:27.530Z,96815.48
2018-12-09T01:54:22.836Z,96813.33
2018-12-09T01:56:51.356Z,96815.50
2018-12-09T01:59:19.827Z,96837.80
2018-12-09T02:01:48.268Z,96828.78
2018-12-09T02:04:17.144Z,96821.49
2018-12-09T02:06:45.802Z,96826.65
2018-12-09T02:09:14.266Z,96810.33
2018-12-09T02:11:42.986Z,96795.30
2018-12-09T02:14:11.453Z,96791.45
2018-12-09T02:16:40.314Z,96799.16
2018-12-09T02:19:16.186Z,96788.83
2018-12-09T02:21:44.873Z,96780.70
2018-12-09T02:24:14.389Z,96770.40
2018-12-09T02:26:42.930Z,96775.09
2018-12-09T02:29:11.356Z,96770.29
2018-12-09T02:31:39.803Z,96751.41
2018-12-09T02:34:08.336Z,96744.95
2018-12-09T02:36:37.376Z,96747.95
2018-12-09T02:39:06.232Z,96743.64
2018-12-09T02:41:34.729Z,96743.20
2018-12-09T02:44:03.272Z,96736.30
2018-12-09T02:46:31.750Z,96741.81
2018-12-09T02:49:00.248Z,96751.28
2018-12-09T02:51:28.719Z,96731.08
2018-12-09T02:53:58.069Z,96727.17
2018-12-09T02:56:26.539Z,96719.39
2018-12-09T02:58:54.957Z,96724.57
2018-12-09T03:01:23.367Z,96717.69
2018-12-09T03:03:51.998Z,96715.95
2018-12-09T03:06:21.002Z,96710.38
2018-12-09T03:08:49.377Z,96709.09
2018-12-09T03:11:17.867Z,96694.47
2018-12-09T03:13:48.100Z,96683.32
2018-12-09T03:16:16.548Z,96698.36
2018-12-09T03:18:45.681Z,96702.72
2018-12-09T03:21:14.123Z,96693.30
2018-12-09T03:23:42.572Z,96696.75
2018-12-09T03:26:11.963Z,96692.46
2018-12-09T03:28:40.485Z,96695.02
2018-12-09T03:31:08.926Z,96677.42
2018-12-09T03:33:37.409Z,96669.29
2018-12-09T03:36:05.850Z,96650.83
2018-12-09T03:38:34.295Z,96652.98
2018-12-09T03:41:03.035Z,96652.58
2018-12-09T03:43:32.300Z,96653.90
2018-12-09T03:46:00.749Z,96649.20
2018-12-09T03:48:29.225Z,96639.73
2018-12-09T03:50:57.665Z,96635.05
2018-12-09T03:53:26.133Z,96624.30
2018-12-09T03:55:55.036Z,96638.97
2018-12-09T03:58:23.485Z,96647.12
2018-12-09T04:00:51.924Z,96640.27
2018-12-09T04:03:20.408Z,96636.85
2018-12-09T04:05:49.165Z,96632.57
2018-12-09T04:08:17.602Z,96619.67
2018-12-09T04:10:46.085Z,96611.06
2018-12-09T04:13:14.526Z,96608.91
2018-12-09T04:15:43.305Z,96610.22
2018-12-09T04:18:12.109Z,96594.75
2018-12-09T04:20:40.546Z,96572.53
2018-12-09T04:23:09.026Z,96562.22
2018-12-09T04:25:37.511Z,96566.41
2018-12-09T04:28:05.932Z,96568.10
2018-12-09T04:30:34.592Z,96548.37
2018-12-09T04:33:03.048Z,96547.98
2018-12-09T04:35:33.226Z,96581.90
2018-12-09T04:38:01.635Z,96590.02
2018-12-09T04:40:31.067Z,96574.14
2018-12-09T04:42:59.965Z,96559.59
2018-12-09T04:45:28.391Z,96574.67
2018-12-09T04:47:56.886Z,96587.13
2018-12-09T04:50:25.319Z,96560.06
2018-12-09T04:52:53.734Z,96555.81
2018-12-09T04:55:22.753Z,96548.09
2018-12-09T04:57:51.572Z,96525.34
2018-12-09T05:00:35.690Z,96513.33
2018-12-09T05:03:06.073Z,96550.19
2018-12-09T05:05:34.539Z,96558.78
2018-12-09T05:08:03.068Z,96539.98
2018-12-09T05:10:31.802Z,96531.84
2018-12-09T05:13:00.248Z,96536.52
2018-12-09T05:15:28.717Z,96533.44
2018-12-09T05:17:57.476Z,96526.95
2018-12-09T05:20:27.022Z,96524.41
2018-12-09T05:22:55.504Z,96515.44
2018-12-09T05:25:25.404Z,96510.76
2018-12-09T05:27:54.324Z,96517.16
2018-12-09T05:30:22.867Z,96507.28
2018-12-09T05:32:51.512Z,96497.84
2018-12-09T05:35:20.396Z,96484.94
2018-12-09T05:37:48.849Z,96484.07
2018-12-09T05:40:17.325Z,96479.39
2018-12-09T05:42:45.766Z,96488.84
2018-12-09T05:45:14.237Z,96482.42
2018-12-09T05:47:42.976Z,96473.86
2018-12-09T05:50:11.419Z,96448.11
2018-12-09T05:52:39.931Z,96450.72
2018-12-09T05:55:08.390Z,96495.66
2018-12-09T05:57:36.873Z,96484.55
2018-12-09T06:00:05.874Z,96475.61
2018-12-09T06:02:49.428Z,96454.61
2018-12-09T06:05:18.247Z,96430.59
2018-12-09T06:07:46.765Z,96412.52
2018-12-09T06:10:15.468Z,96410.00
2018-12-09T06:12:43.973Z,96434.02
2018-12-09T06:15:12.705Z,96480.36
2018-12-09T06:17:41.183Z,96485.97
2018-12-09T06:20:10.037Z,96473.13
2018-12-09T06:25:28.668Z,96313.93
2018-12-09T06:27:57.128Z,96374.89
2018-12-09T06:30:25.601Z,96382.61
2018-12-09T06:32:54.058Z,96396.34
2018-12-09T06:35:22.516Z,96399.77
2018-12-09T06:37:50.984Z,96399.28
2018-12-09T06:40:20.558Z,96400.23
2018-12-09T06:42:49.342Z,96418.71
2018-12-09T06:45:17.824Z,96424.74
2018-12-09T06:47:46.325Z,96434.52
2018-12-09T06:50:15.680Z,96431.17
2018-12-09T06:52:44.580Z,96426.43
2018-12-09T06:55:13.408Z,96423.88
2018-12-09T06:57:41.874Z,96438.83
2018-12-09T07:00:10.359Z,96437.46
2018-12-09T07:02:38.872Z,96435.67
2018-12-09T07:05:08.008Z,96428.81
2018-12-09T07:07:36.497Z,96404.70
2018-12-09T07:10:07.268Z,96390.86
2018-12-09T07:12:35.729Z,96393.77
2018-12-09T07:15:04.884Z,96408.27
2018-12-09T07:17:33.300Z,96417.17
2018-12-09T07:20:01.747Z,96418.36
2018-12-09T07:22:30.214Z,96412.28
2018-12-09T07:24:58.701Z,96397.13
2018-12-09T07:27:27.418Z,96382.46
2018-12-09T07:30:02.076Z,96359.66
2018-12-09T07:32:26.961Z,96411.07
2018-12-09T07:34:55.393Z,96451.94
2018-12-09T07:37:23.863Z,96454.03
2018-12-09T07:39:52.260Z,96459.25
2018-12-09T07:42:20.740Z,96432.70
2018-12-09T07:44:49.284Z,96421.94
2018-12-09T07:47:19.017Z,96417.64
2018-12-09T07:49:47.455Z,96421.84
2018-12-09T07:52:15.961Z,96432.19
2018-12-09T07:54:44.534Z,96448.05
2018-12-09T07:57:13.064Z,96459.03
2018-12-09T07:59:41.525Z,96452.94
2018-12-09T08:02:09.928Z,96438.55
2018-12-09T08:04:38.367Z,96442.23
2018-12-09T08:07:06.820Z,96437.47
2018-12-09T08:09:35.286Z,96441.38
2018-12-09T08:12:03.735Z,96426.63
2018-12-09T08:14:32.266Z,96407.56
2018-12-09T08:17:00.712Z,96401.80
2018-12-09T08:19:29.158Z,96388.45
2018-12-09T08:21:57.675Z,96383.28
2018-12-09T08:24:26.129Z,96375.77
2018-12-09T08:26:56.480Z,96388.97
2018-12-09T08:29:24.955Z,96387.37
2018-12-09T08:31:53.375Z,96385.54
2018-12-09T08:34:21.824Z,96378.77
2018-12-09T08:36:50.301Z,96377.53
2018-12-09T08:39:18.741Z,96374.84
2018-12-09T08:41:47.184Z,96363.41
2018-12-09T08:44:15.661Z,96367.31
2018-12-09T08:46:44.105Z,96364.33
2018-12-09T08:49:12.580Z,96356.56
2018-12-09T08:51:41.105Z,96346.59
2018-12-09T08:54:09.514Z,96334.70
2018-12-09T08:56:37.953Z,96202.13
2018-12-09T08:59:06.428Z,96295.19
2018-12-09T09:01:34.865Z,96293.27
2018-12-09T09:04:03.270Z,96350.16
2018-12-09T09:06:31.761Z,96383.06
2018-12-09T09:09:00.198Z,96392.14
2018-12-09T09:11:28.628Z,96391.32
2018-12-09T09:13:57.089Z,96408.45
2018-12-09T09:16:25.562Z,96426.67
2018-12-09T09:18:54.034Z,96440.84
2018-12-09T09:21:22.506Z,96449.63
2018-12-09T09:23:50.975Z,96468.21
2018-12-09T09:26:19.509Z,96481.16
2018-12-09T09:28:48.093Z,96504.47
2018-12-09T09:31:16.590Z,96525.59
2018-12-09T09:33:45.130Z,96537.03
2018-12-09T09:36:13.637Z,96532.17
2018-12-09T09:38:42.129Z,96528.27
2018-12-09T09:41:10.585Z,96559.94
2018-12-09T09:43:39.081Z,96566.95
2018-12-09T09:46:07.516Z,96577.69
2018-12-09T09:48:35.976Z,96569.04
2018-12-09T09:51:05.140Z,96561.80
2018-12-09T09:53:35.518Z,96522.08
2018-12-09T09:56:04.105Z,96495.93
2018-12-09T09:58:32.585Z,96481.53
2018-12-09T10:01:01.025Z,96354.24
2018-12-09T10:03:29.468Z,96459.33
2018-12-09T10:05:57.956Z,96465.24
2018-12-09T10:08:26.435Z,96449.90
2018-12-09T10:10:54.868Z,96483.12
2018-12-09T10:13:23.400Z,96484.67
2018-12-09T10:15:51.890Z,96466.25
2018-12-09T10:18:21.997Z,96443.15
2018-12-09T10:20:50.502Z,96441.92
2018-12-09T10:23:18.956Z,96437.31
2018-12-09T10:25:47.462Z,96417.47
2018-12-09T10:28:15.960Z,96412.20
2018-12-09T10:30:44.411Z,96406.36
2018-12-09T10:33:12.865Z,96402.56
2018-12-09T10:35:41.366Z,96397.05
2018-12-09T10:38:10.076Z,96380.05
2018-12-09T10:40:39.154Z,96373.95
2018-12-09T10:43:07.627Z,96371.70
2018-12-09T10:45:36.066Z,96374.27
2018-12-09T10:48:04.568Z,96376.05
2018-12-09T10:50:33.211Z,96379.17
2018-12-09T10:53:01.646Z,96387.69
2018-12-09T10:55:30.715Z,96373.97
2018-12-09T10:57:59.198Z,96364.42
2018-12-09T11:00:33.373Z,96381.79
2018-12-09T11:03:02.616Z,96371.95
2018-12-09T11:05:31.125Z,96375.28
2018-12-09T11:07:59.590Z,96381.75
2018-12-09T11:10:28.717Z,96389.50
2018-12-09T11:12:58.181Z,96382.99
2018-12-09T11:15:26.640Z,96364.86
2018-12-09T11:17:55.149Z,96362.38
2018-12-09T11:20:23.639Z,96365.91
2018-12-09T11:22:52.242Z,96380.84
2018-12-09T11:25:21.026Z,96383.33
2018-12-09T11:27:52.377Z,96389.75
2018-12-09T11:30:23.437Z,96377.08
2018-12-09T11:32:51.866Z,96378.44
2018-12-09T11:35:20.365Z,96374.62
2018-12-09T11:37:48.888Z,96368.03
2018-12-09T11:40:17.432Z,96357.51
2018-12-09T11:42:46.004Z,96350.47
2018-12-09T11:45:15.360Z,96350.45
2018-12-09T11:47:43.869Z,96352.27
2018-12-09T11:50:12.606Z,96348.97
2018-12-09T11:52:41.146Z,96344.42
2018-12-09T11:55:10.250Z,96342.66
2018-12-09T11:57:39.610Z,96339.66
2018-12-09T12:00:11.461Z,96329.84
2018-12-09T12:02:40.181Z,96258.10
2018-12-09T12:05:08.688Z,96340.52
2018-12-09T12:07:37.308Z,96343.78
2018-12-09T12:10:06.825Z,96340.19
2018-12-09T12:12:35.631Z,96346.71
2018-12-09T12:15:05.392Z,96355.63
2018-12-09T12:17:33.968Z,96351.98
2018-12-09T12:20:02.501Z,96352.83
2018-12-09T12:22:31.083Z,96351.38
2018-12-09T12:24:59.738Z,96354.17
2018-12-09T12:27:29.316Z,96347.67
2018-12-09T12:29:59.386Z,96352.28
2018-12-09T12:32:27.890Z,96354.75
2018-12-09T12:34:56.547Z,96357.75
2018-12-09T12:37:25.188Z,96364.64
2018-12-09T12:39:54.147Z,96362.25
2018-12-09T12:42:23.118Z,96355.35
2018-12-09T12:44:52.289Z,96350.20
2018-12-09T12:47:21.726Z,96344.36
2018-12-09T12:49:50.537Z,96334.73
2018-12-09T12:52:19.170Z,96347.88
2018-12-09T12:54:47.970Z,96345.52
2018-12-09T12:57:16.550Z,96337.83
2018-12-09T12:59:45.178Z,96331.11
2018-12-09T13:02:13.691Z,96289.45
2018-12-09T13:04:42.779Z,96324.12
2018-12-09T13:07:11.403Z,96321.22
2018-12-09T13:09:40.271Z,96327.89
2018-12-09T13:12:09.292Z,96321.67
2018-12-09T13:14:42.297Z,96319.41
2018-12-09T13:17:11.132Z,96315.22
2018-12-09T13:19:39.708Z,96311.83
2018-12-09T13:22:08.835Z,96309.66
2018-12-09T13:24:37.425Z,96315.67
2018-12-09T13:27:06.242Z,96330.27
2018-12-09T13:29:35.721Z,96333.17
2018-12-09T13:32:05.027Z,96341.77
2018-12-09T13:34:34.086Z,96330.58
2018-12-09T13:37:03.156Z,96331.53
2018-12-09T13:39:31.717Z,96349.77
2018-12-09T13:42:00.296Z,96344.54
2018-12-09T13:44:28.795Z,96337.83
2018-12-09T13:46:57.324Z,96340.96
2018-12-09T13:49:25.895Z,96338.89
2018-12-09T13:51:54.659Z,96342.00
2018-12-09T13:54:23.417Z,96342.84
2018-12-09T13:56:52.044Z,96335.50
2018-12-09T13:59:21.429Z,96331.55
2018-12-09T14:01:50.879Z,96338.02
2018-12-09T14:04:21.148Z,96346.67
2018-12-09T14:06:49.731Z,96337.57
2018-12-09T14:09:19.186Z,96339.34
2018-12-09T14:11:47.855Z,96338.55
2018-12-09T14:14:17.467Z,96329.53
2018-12-09T14:16:46.260Z,96330.59
2018-12-09T14:19:14.886Z,96335.80
2018-12-09T14:21:43.959Z,96335.05
2018-12-09T14:24:12.878Z,96327.72
2018-12-09T14:26:42.586Z,96341.34
2018-12-09T14:29:11.273Z,96334.59
2018-12-09T14:31:40.313Z,96332.69
2018-12-09T14:34:08.891Z,96327.69
2018-12-09T14:36:37.435Z,96330.39
2018-12-09T14:39:08.158Z,96325.72
2018-12-09T14:41:37.729Z,96336.17
2018-12-09T14:44:07.567Z,96333.34
2018-12-09T14:46:38.845Z,96330.53
2018-12-09T14:49:07.345Z,96329.46
2018-12-09T14:51:36.223Z,96340.02
2018-12-09T14:54:05.835Z,96344.77
2018-12-09T14:56:35.208Z,96341.77
2018-12-09T14:59:03.765Z,96336.70
2018-12-09T15:01:33.470Z,96338.56
2018-12-09T15:04:02.086Z,96337.77
2018-12-09T15:06:30.886Z,96342.23
2018-12-09T15:08:59.471Z,96339.23
2018-12-09T15:11:28.266Z,96349.12
2018-12-09T15:13:57.115Z,96347.47
2018-12-09T15:16:27.731Z,96339.73
2018-12-09T15:18:56.393Z,96349.38
2018-12-09T15:21:25.568Z,96348.03
2018-12-09T15:23:54.200Z,96345.61
2018-12-09T15:26:23.825Z,96347.98
2018-12-09T15:28:52.805Z,96355.16
2018-12-09T15:31:21.788Z,96356.29
2018-12-09T15:33:50.578Z,96367.47
2018-12-09T15:36:19.478Z,96369.72
2018-12-09T15:38:48.819Z,96380.67
2018-12-09T15:41:17.734Z,96376.02
2018-12-09T15:43:46.998Z,96383.55
2018-12-09T15:46:16.537Z,96383.53
2018-12-09T15:48:49.471Z,96376.09
2018-12-09T15:51:18.334Z,96333.18
2018-12-09T15:53:47.978Z,96375.69
2018-12-09T15:56:16.569Z,96373.33
2018-12-09T15:58:45.135Z,96376.52
2018-12-09T16:01:13.704Z,96377.91
2018-12-09T16:03:42.359Z,96379.70
2018-12-09T16:06:11.013Z,96377.52
2018-12-09T16:08:39.638Z,96380.41
2018-12-09T16:11:12.430Z,96389.92
2018-12-09T16:13:41.273Z,96386.58
2018-12-09T16:16:11.370Z,96383.19
2018-12-09T16:18:40.027Z,96385.66
2018-12-09T16:21:13.604Z,96391.63
2018-12-09T16:23:42.371Z,96397.89
2018-12-09T16:26:11.063Z,96400.08
2018-12-09T16:28:39.751Z,96404.29
2018-12-09T16:31:09.592Z,96395.30
2018-12-09T16:33:38.363Z,96400.34
2018-12-09T16:36:06.977Z,96398.38
2018-12-09T16:38:36.820Z,96406.72
2018-12-09T16:41:10.682Z,96399.08
2018-12-09T16:43:39.612Z,96406.89
2018-12-09T16:46:10.202Z,96411.70
2018-12-09T16:48:40.880Z,96410.45
2018-12-09T16:51:09.611Z,96404.86
2018-12-09T16:53:40.406Z,96390.58
2018-12-09T16:56:09.286Z,96417.16
2018-12-09T16:58:38.067Z,96404.25
2018-12-09T17:03:40.252Z,96423.38
2018-12-09T17:06:09.854Z,96428.19
2018-12-09T17:08:39.481Z,96426.16
2018-12-09T17:11:08.900Z,96436.59
2018-12-09T17:13:37.501Z,96440.47
2018-12-09T17:16:06.094Z,96448.67
2018-12-09T17:18:38.345Z,96437.88
2018-12-09T17:21:08.944Z,96441.31
2018-12-09T17:23:37.765Z,96446.05
2018-12-09T17:26:07.757Z,96456.92
2018-12-09T17:28:37.530Z,96463.27
2018-12-09T17:31:06.135Z,96468.61
2018-12-09T17:33:39.612Z,96462.95
2018-12-09T17:36:08.251Z,96465.44
2018-12-09T17:38:38.456Z,96458.49
2018-12-09T17:41:07.636Z,96452.30
2018-12-09T17:43:36.353Z,96448.78
2018-12-09T17:46:06.265Z,96445.91
2018-12-09T17:48:35.940Z,96436.77
2018-12-09T17:51:06.672Z,96448.88
2018-12-09T17:53:37.525Z,96440.63
2018-12-09T17:56:07.597Z,96429.33
2018-12-09T17:58:39.373Z,96431.11
2018-12-09T18:01:10.221Z,96436.36
2018-12-09T18:03:38.845Z,96439.73
2018-12-09T18:06:08.338Z,96444.87
2018-12-09T18:08:38.377Z,96444.79
2018-12-09T18:11:10.005Z,96453.14
2018-12-09T18:13:38.866Z,96455.98
2018-12-09T18:16:08.806Z,96464.31
2018-12-09T18:18:37.527Z,96473.53
2018-12-09T18:21:08.121Z,96474.42
2018-12-09T18:23:36.871Z,96475.84
2018-12-09T18:26:07.131Z,96475.49
2018-12-09T18:28:36.150Z,96490.56
2018-12-09T18:31:05.917Z,96483.84
2018-12-09T18:33:36.180Z,96489.07
2018-12-09T18:36:04.861Z,96501.17
2018-12-09T18:41:13.615Z,96518.94
2018-12-09T18:43:42.480Z,96510.74
2018-12-09T18:46:12.294Z,96520.47
2018-12-09T18:48:41.007Z,96519.28
2018-12-09T18:51:12.547Z,96518.91
2018-12-09T18:53:46.018Z,96526.19
2018-12-09T18:56:15.145Z,96524.02
2018-12-09T18:58:45.557Z,96528.80
2018-12-09T19:01:16.288Z,96529.23
2018-12-09T19:06:18.865Z,96530.26
2018-12-09T19:08:48.553Z,96199.20
2018-12-09T19:13:51.881Z,96549.35
2018-12-09T19:16:20.916Z,96540.85
2018-12-09T19:18:50.081Z,96526.70
2018-12-09T19:21:23.122Z,96527.63
2018-12-09T19:26:26.846Z,96534.71
2018-12-09T19:28:55.527Z,96533.58
2018-12-09T19:31:24.889Z,96531.59
2018-12-09T19:33:54.260Z,96535.77
2018-12-09T19:36:24.231Z,96536.30
2018-12-09T19:38:53.802Z,96535.31
2018-12-09T19:41:23.207Z,96544.62
2018-12-09T19:43:53.027Z,96547.66
2018-12-09T19:46:21.875Z,96557.44
2018-12-09T19:53:58.651Z,96585.55
2018-12-09T19:56:27.697Z,96587.30
2018-12-09T19:58:59.593Z,96590.34
2018-12-09T20:01:28.287Z,96584.00
2018-12-09T20:03:57.293Z,96591.90
2018-12-09T20:09:05.016Z,96595.06
2018-12-09T20:11:34.005Z,96598.03
2018-12-09T20:14:04.217Z,96607.98
2018-12-09T20:16:37.150Z,96605.03
2018-12-09T20:19:06.427Z,96595.62
2018-12-09T20:21:35.437Z,96601.72
2018-12-09T20:24:06.179Z,96600.06
2018-12-09T20:26:35.031Z,96603.14
2018-12-09T20:29:06.131Z,96600.59
2018-12-09T20:31:34.716Z,96599.34
2018-12-09T20:34:07.829Z,96596.88
2018-12-09T20:36:37.535Z,96602.03
2018-12-09T20:39:07.821Z,96604.12
2018-12-09T20:41:36.817Z,96591.64
2018-12-09T20:44:06.612Z,96597.23
2018-12-09T20:49:11.431Z,96602.11
2018-12-09T20:51:42.598Z,96608.05
2018-12-09T20:54:14.886Z,96613.20
2018-12-09T20:56:44.447Z,96616.00
2018-12-09T21:01:46.416Z,96626.36
2018-12-09T21:04:15.069Z,96628.17
2018-12-09T21:06:44.675Z,96637.28
2018-12-09T21:09:13.309Z,96636.03
2018-12-09T21:11:43.007Z,96634.33
2018-12-09T21:14:11.864Z,96638.61
2018-12-09T21:16:41.307Z,96643.73
2018-12-09T21:19:10.025Z,96648.06
2018-12-09T21:21:38.676Z,96650.27
2018-12-09T21:24:07.662Z,96649.44
2018-12-09T21:26:36.197Z,96648.66
2018-12-09T21:29:04.773Z,96651.68
2018-12-09T21:31:33.263Z,96648.23
2018-12-09T21:34:01.847Z,96652.55
2018-12-09T21:36:30.380Z,96663.70
2018-12-09T21:38:59.328Z,96661.14
2018-12-09T21:41:27.866Z,96656.84
2018-12-09T21:43:56.740Z,96673.61
2018-12-09T21:46:25.382Z,96681.81
2018-12-09T21:48:54.160Z,96688.76
2018-12-09T21:51:22.695Z,96693.86
2018-12-09T21:53:51.295Z,96694.72
2018-12-09T21:56:19.732Z,96529.92
2018-12-09T21:58:48.227Z,96705.67
2018-12-09T22:01:16.809Z,96711.29
2018-12-09T22:03:45.335Z,96717.01
2018-12-09T22:06:13.864Z,96706.28
2018-12-09T22:08:42.393Z,96714.13
2018-12-09T22:11:10.880Z,96724.47
2018-12-09T22:13:39.350Z,96723.63
2018-12-09T22:16:07.833Z,96723.63
2018-12-09T22:18:36.701Z,96727.08
2018-12-09T22:21:05.214Z,96723.23
2018-12-09T22:23:33.675Z,96720.18
2018-12-09T22:26:02.162Z,96718.43
2018-12-09T22:28:30.590Z,96724.02
2018-12-09T22:31:00.784Z,96727.06
2018-12-09T22:33:29.253Z,96722.33
2018-12-09T22:35:57.637Z,96740.00
2018-12-09T22:38:26.957Z,96735.73
2018-12-09T22:40:55.627Z,96744.75
2018-12-09T22:43:24.037Z,96741.35
2018-12-09T22:45:53.545Z,96737.50
2018-12-09T22:48:21.991Z,96729.31
2018-12-09T22:50:50.507Z,96723.09
2018-12-09T22:53:18.972Z,96728.26
2018-12-09T22:55:47.394Z,96730.01
2018-12-09T22:58:16.172Z,96737.33
2018-12-09T23:00:48.017Z,96711.62
2018-12-09T23:03:16.471Z,96743.84
2018-12-09T23:05:44.900Z,96755.04
2018-12-09T23:08:13.391Z,96755.88
2018-12-09T23:10:41.806Z,96757.03
2018-12-09T23:13:10.311Z,96764.39
2018-12-09T23:15:38.799Z,96761.46
2018-12-09T23:18:07.505Z,96753.34
2018-12-09T23:20:35.917Z,96764.97
2018-12-09T23:23:04.385Z,96761.55
2018-12-09T23:25:32.842Z,96768.89
2018-12-09T23:28:01.279Z,96768.45
2018-12-09T23:30:29.775Z,96761.58
2018-12-09T23:32:58.214Z,96754.69
2018-12-09T23:35:26.642Z,96749.53
2018-12-09T23:37:55.082Z,96757.68
2018-12-09T23:40:23.508Z,96758.59
2018-12-09T23:42:51.937Z,96752.97
2018-12-09T23:45:20.449Z,96762.45
2018-12-09T23:47:48.851Z,96768.91
2018-12-09T23:50:17.279Z,96772.34
2018-12-09T23:52:45.747Z,96780.52
2018-12-09T23:55:14.203Z,96782.70
2018-12-09T23:57:42.634Z,96790.02
